sensor_id;sensor_type;location;lat;lon;timestamp;pressure;altitude;pressure_sealevel;temperature;humidity
29359;BME280;16347;53.232;6.556;2022-11-20T00:01:06;101393.91;;;6.30;52.71
29359;BME280;16347;53.232;6.556;2022-11-20T00:03:34;101395.69;;;6.07;52.41
29359;BME280;16347;53.232;6.556;2022-11-20T00:06:04;101390.03;;;6.10;52.42
29359;BME280;16347;53.232;6.556;2022-11-20T00:08:33;101394.97;;;6.16;53.67
29359;BME280;16347;53.232;6.556;2022-11-20T00:11:03;101395.13;;;6.26;53.93
29359;BME280;16347;53.232;6.556;2022-11-20T00:13:31;101398.16;;;6.22;53.13
29359;BME280;16347;53.232;6.556;2022-11-20T00:16:01;101385.13;;;6.15;52.76
29359;BME280;16347;53.232;6.556;2022-11-20T00:18:33;101390.16;;;6.09;53.08
29359;BME280;16347;53.232;6.556;2022-11-20T00:21:04;101394.91;;;6.05;52.96
29359;BME280;16347;53.232;6.556;2022-11-20T00:23:42;101400.44;;;6.04;52.51
29359;BME280;16347;53.232;6.556;2022-11-20T00:26:17;101395.72;;;5.95;53.01
29359;BME280;16347;53.232;6.556;2022-11-20T00:28:59;101397.69;;;5.93;52.88
29359;BME280;16347;53.232;6.556;2022-11-20T00:31:28;101394.41;;;5.77;53.70
29359;BME280;16347;53.232;6.556;2022-11-20T00:34:07;101388.97;;;5.89;53.49
29359;BME280;16347;53.232;6.556;2022-11-20T00:36:52;101380.06;;;6.00;53.02
29359;BME280;16347;53.232;6.556;2022-11-20T00:39:24;101381.84;;;5.88;52.63
29359;BME280;16347;53.232;6.556;2022-11-20T00:41:54;101383.34;;;5.92;52.63
29359;BME280;16347;53.232;6.556;2022-11-20T00:44:26;101387.44;;;5.85;52.84
29359;BME280;16347;53.232;6.556;2022-11-20T00:47:02;101388.38;;;5.97;52.72
29359;BME280;16347;53.232;6.556;2022-11-20T00:49:42;101388.00;;;5.90;52.53
29359;BME280;16347;53.232;6.556;2022-11-20T00:52:14;101389.19;;;5.86;52.53
29359;BME280;16347;53.232;6.556;2022-11-20T00:54:47;101393.00;;;5.71;52.08
29359;BME280;16347;53.232;6.556;2022-11-20T00:57:32;101388.13;;;5.52;52.93
29359;BME280;16347;53.232;6.556;2022-11-20T01:00:16;101387.16;;;5.41;52.73
29359;BME280;16347;53.232;6.556;2022-11-20T01:02:45;101382.88;;;5.38;53.62
29359;BME280;16347;53.232;6.556;2022-11-20T01:05:15;101386.19;;;5.42;53.65
29359;BME280;16347;53.232;6.556;2022-11-20T01:07:43;101377.31;;;5.52;53.32
29359;BME280;16347;53.232;6.556;2022-11-20T01:10:13;101372.72;;;5.42;53.59
29359;BME280;16347;53.232;6.556;2022-11-20T01:12:49;101367.41;;;5.53;52.81
29359;BME280;16347;53.232;6.556;2022-11-20T01:15:42;101372.25;;;5.48;53.02
29359;BME280;16347;53.232;6.556;2022-11-20T01:18:14;101369.56;;;5.48;52.79
29359;BME280;16347;53.232;6.556;2022-11-20T01:20:51;101364.94;;;5.50;53.84
29359;BME280;16347;53.232;6.556;2022-11-20T01:23:25;101362.47;;;5.71;53.35
29359;BME280;16347;53.232;6.556;2022-11-20T01:25:58;101364.94;;;5.74;54.09
29359;BME280;16347;53.232;6.556;2022-11-20T01:28:29;101357.75;;;5.85;54.18
29359;BME280;16347;53.232;6.556;2022-11-20T01:30:59;101365.16;;;5.94;53.74
29359;BME280;16347;53.232;6.556;2022-11-20T01:33:28;101360.78;;;5.93;53.35
29359;BME280;16347;53.232;6.556;2022-11-20T01:36:05;101353.88;;;5.89;52.47
29359;BME280;16347;53.232;6.556;2022-11-20T01:38:38;101345.44;;;5.94;52.35
29359;BME280;16347;53.232;6.556;2022-11-20T01:41:13;101339.66;;;5.98;52.23
29359;BME280;16347;53.232;6.556;2022-11-20T01:44:03;101342.50;;;5.97;52.49
29359;BME280;16347;53.232;6.556;2022-11-20T01:46:32;101340.63;;;5.86;52.47
29359;BME280;16347;53.232;6.556;2022-11-20T01:49:10;101343.31;;;5.86;52.39
29359;BME280;16347;53.232;6.556;2022-11-20T01:51:48;101336.63;;;5.79;53.07
29359;BME280;16347;53.232;6.556;2022-11-20T01:54:32;101335.44;;;5.83;53.40
29359;BME280;16347;53.232;6.556;2022-11-20T01:57:04;101329.03;;;5.84;53.21
29359;BME280;16347;53.232;6.556;2022-11-20T01:59:40;101330.59;;;5.76;52.97
29359;BME280;16347;53.232;6.556;2022-11-20T02:02:20;101336.81;;;5.65;53.33
29359;BME280;16347;53.232;6.556;2022-11-20T02:04:51;101327.28;;;5.72;53.65
29359;BME280;16347;53.232;6.556;2022-11-20T02:07:24;101328.38;;;5.69;53.59
29359;BME280;16347;53.232;6.556;2022-11-20T02:09:52;101320.38;;;5.68;53.35
29359;BME280;16347;53.232;6.556;2022-11-20T02:12:24;101307.38;;;5.86;53.75
29359;BME280;16347;53.232;6.556;2022-11-20T02:15:10;101303.91;;;5.84;53.67
29359;BME280;16347;53.232;6.556;2022-11-20T02:17:38;101299.31;;;5.97;53.37
29359;BME280;16347;53.232;6.556;2022-11-20T02:20:07;101305.72;;;6.07;54.07
29359;BME280;16347;53.232;6.556;2022-11-20T02:22:42;101300.94;;;6.10;53.39
29359;BME280;16347;53.232;6.556;2022-11-20T02:25:14;101307.09;;;6.12;52.72
29359;BME280;16347;53.232;6.556;2022-11-20T02:27:42;101304.03;;;6.17;53.56
29359;BME280;16347;53.232;6.556;2022-11-20T02:30:11;101304.03;;;6.17;53.03
29359;BME280;16347;53.232;6.556;2022-11-20T02:32:39;101301.47;;;6.27;53.16
29359;BME280;16347;53.232;6.556;2022-11-20T02:35:10;101304.66;;;6.21;52.94
29359;BME280;16347;53.232;6.556;2022-11-20T02:38:00;101299.75;;;6.26;53.33
29359;BME280;16347;53.232;6.556;2022-11-20T02:40:30;101309.56;;;6.27;52.41
29359;BME280;16347;53.232;6.556;2022-11-20T02:42:58;101313.13;;;6.27;52.65
29359;BME280;16347;53.232;6.556;2022-11-20T02:45:26;101303.06;;;6.29;52.79
29359;BME280;16347;53.232;6.556;2022-11-20T02:47:54;101304.03;;;6.28;52.14
29359;BME280;16347;53.232;6.556;2022-11-20T02:50:22;101304.56;;;6.33;52.30
29359;BME280;16347;53.232;6.556;2022-11-20T02:52:50;101293.63;;;6.46;51.98
29359;BME280;16347;53.232;6.556;2022-11-20T02:55:18;101287.25;;;6.36;51.67
29359;BME280;16347;53.232;6.556;2022-11-20T02:57:48;101288.69;;;6.29;52.51
29359;BME280;16347;53.232;6.556;2022-11-20T03:00:16;101284.75;;;6.22;52.49
29359;BME280;16347;53.232;6.556;2022-11-20T03:02:44;101288.53;;;6.08;51.58
29359;BME280;16347;53.232;6.556;2022-11-20T03:05:12;101289.84;;;5.91;52.24
29359;BME280;16347;53.232;6.556;2022-11-20T03:07:40;101284.72;;;5.99;52.25
29359;BME280;16347;53.232;6.556;2022-11-20T03:10:09;101284.63;;;6.01;52.51
29359;BME280;16347;53.232;6.556;2022-11-20T03:12:37;101287.06;;;6.04;52.72
29359;BME280;16347;53.232;6.556;2022-11-20T03:15:07;101283.28;;;6.06;52.99
29359;BME280;16347;53.232;6.556;2022-11-20T03:17:36;101281.75;;;5.91;52.61
29359;BME280;16347;53.232;6.556;2022-11-20T03:20:05;101279.03;;;5.91;52.18
29359;BME280;16347;53.232;6.556;2022-11-20T03:22:33;101272.97;;;5.77;52.55
29359;BME280;16347;53.232;6.556;2022-11-20T03:25:01;101266.47;;;5.79;52.16
29359;BME280;16347;53.232;6.556;2022-11-20T03:27:32;101267.56;;;5.77;52.24
29359;BME280;16347;53.232;6.556;2022-11-20T03:30:00;101257.06;;;5.61;52.74
29359;BME280;16347;53.232;6.556;2022-11-20T03:32:30;101261.91;;;5.68;52.92
29359;BME280;16347;53.232;6.556;2022-11-20T03:34:58;101256.50;;;5.68;53.29
29359;BME280;16347;53.232;6.556;2022-11-20T03:37:26;101255.38;;;5.60;53.19
29359;BME280;16347;53.232;6.556;2022-11-20T03:39:54;101239.09;;;5.38;53.54
29359;BME280;16347;53.232;6.556;2022-11-20T03:42:22;101244.34;;;5.63;53.97
29359;BME280;16347;53.232;6.556;2022-11-20T03:45:08;101241.69;;;5.39;52.99
29359;BME280;16347;53.232;6.556;2022-11-20T03:47:38;101239.19;;;5.60;53.46
29359;BME280;16347;53.232;6.556;2022-11-20T03:50:07;101240.22;;;5.81;53.09
29359;BME280;16347;53.232;6.556;2022-11-20T03:52:36;101235.38;;;5.86;51.77
29359;BME280;16347;53.232;6.556;2022-11-20T03:55:04;101240.69;;;5.75;51.97
29359;BME280;16347;53.232;6.556;2022-11-20T03:57:33;101235.81;;;5.80;51.75
29359;BME280;16347;53.232;6.556;2022-11-20T04:00:01;101226.25;;;5.76;51.32
29359;BME280;16347;53.232;6.556;2022-11-20T04:02:30;101222.81;;;5.74;51.75
29359;BME280;16347;53.232;6.556;2022-11-20T04:04:59;101230.06;;;5.85;52.09
29359;BME280;16347;53.232;6.556;2022-11-20T04:07:27;101222.59;;;5.88;51.27
29359;BME280;16347;53.232;6.556;2022-11-20T04:09:55;101217.41;;;5.85;51.36
29359;BME280;16347;53.232;6.556;2022-11-20T04:12:23;101211.81;;;5.88;51.45
29359;BME280;16347;53.232;6.556;2022-11-20T04:14:51;101212.50;;;5.79;51.53
29359;BME280;16347;53.232;6.556;2022-11-20T04:17:19;101219.00;;;5.77;51.77
29359;BME280;16347;53.232;6.556;2022-11-20T04:19:47;101217.41;;;5.85;52.41
29359;BME280;16347;53.232;6.556;2022-11-20T04:22:16;101222.03;;;5.96;52.17
29359;BME280;16347;53.232;6.556;2022-11-20T04:24:44;101218.09;;;6.00;52.01
29359;BME280;16347;53.232;6.556;2022-11-20T04:27:12;101215.41;;;6.00;52.20
29359;BME280;16347;53.232;6.556;2022-11-20T04:29:41;101220.06;;;6.09;52.16
29359;BME280;16347;53.232;6.556;2022-11-20T04:32:09;101217.88;;;6.14;52.15
29359;BME280;16347;53.232;6.556;2022-11-20T04:34:37;101211.38;;;6.16;52.31
29359;BME280;16347;53.232;6.556;2022-11-20T04:37:05;101208.44;;;6.19;52.26
29359;BME280;16347;53.232;6.556;2022-11-20T04:39:34;101211.72;;;6.12;51.32
29359;BME280;16347;53.232;6.556;2022-11-20T04:42:02;101200.81;;;6.13;51.86
29359;BME280;16347;53.232;6.556;2022-11-20T04:44:48;101202.16;;;6.19;52.50
29359;BME280;16347;53.232;6.556;2022-11-20T04:47:16;101198.72;;;6.28;52.06
29359;BME280;16347;53.232;6.556;2022-11-20T04:49:44;101196.88;;;6.29;51.54
29359;BME280;16347;53.232;6.556;2022-11-20T04:52:12;101195.03;;;6.18;51.33
29359;BME280;16347;53.232;6.556;2022-11-20T04:54:42;101190.88;;;6.25;52.01
29359;BME280;16347;53.232;6.556;2022-11-20T04:57:10;101183.78;;;6.24;51.50
29359;BME280;16347;53.232;6.556;2022-11-20T04:59:41;101184.88;;;6.10;51.02
29359;BME280;16347;53.232;6.556;2022-11-20T05:02:09;101176.50;;;5.91;51.44
29359;BME280;16347;53.232;6.556;2022-11-20T05:04:38;101185.13;;;6.07;51.23
29359;BME280;16347;53.232;6.556;2022-11-20T05:07:06;101178.34;;;6.02;51.44
29359;BME280;16347;53.232;6.556;2022-11-20T05:09:34;101177.63;;;6.00;50.99
29359;BME280;16347;53.232;6.556;2022-11-20T05:12:03;101175.53;;;5.92;50.98
29359;BME280;16347;53.232;6.556;2022-11-20T05:14:31;101179.13;;;5.69;51.28
29359;BME280;16347;53.232;6.556;2022-11-20T05:16:59;101181.78;;;5.47;52.86
29359;BME280;16347;53.232;6.556;2022-11-20T05:19:27;101179.72;;;5.61;53.26
29359;BME280;16347;53.232;6.556;2022-11-20T05:21:55;101177.59;;;5.43;53.08
29359;BME280;16347;53.232;6.556;2022-11-20T05:24:23;101173.13;;;5.65;52.91
29359;BME280;16347;53.232;6.556;2022-11-20T05:26:51;101177.78;;;5.75;53.84
29359;BME280;16347;53.232;6.556;2022-11-20T05:29:20;101177.25;;;5.93;53.76
29359;BME280;16347;53.232;6.556;2022-11-20T05:31:49;101170.88;;;6.05;53.19
29359;BME280;16347;53.232;6.556;2022-11-20T05:34:17;101168.78;;;6.09;52.22
29359;BME280;16347;53.232;6.556;2022-11-20T05:36:45;101164.41;;;5.84;51.46
29359;BME280;16347;53.232;6.556;2022-11-20T05:39:13;101164.03;;;5.78;51.94
29359;BME280;16347;53.232;6.556;2022-11-20T05:41:41;101158.66;;;5.78;52.16
29359;BME280;16347;53.232;6.556;2022-11-20T05:44:10;101151.03;;;5.72;52.14
29359;BME280;16347;53.232;6.556;2022-11-20T05:46:40;101149.69;;;5.66;52.65
29359;BME280;16347;53.232;6.556;2022-11-20T05:49:08;101147.38;;;5.73;52.64
29359;BME280;16347;53.232;6.556;2022-11-20T05:51:36;101150.03;;;5.61;52.74
29359;BME280;16347;53.232;6.556;2022-11-20T05:54:04;101147.09;;;5.64;52.61
29359;BME280;16347;53.232;6.556;2022-11-20T05:56:32;101145.66;;;5.60;52.80
29359;BME280;16347;53.232;6.556;2022-11-20T05:59:00;101143.56;;;5.64;52.61
29359;BME280;16347;53.232;6.556;2022-11-20T06:01:28;101140.50;;;5.68;52.50
29359;BME280;16347;53.232;6.556;2022-11-20T06:03:58;101149.19;;;5.61;52.51
29359;BME280;16347;53.232;6.556;2022-11-20T06:06:26;101147.25;;;5.63;53.32
29359;BME280;16347;53.232;6.556;2022-11-20T06:08:54;101148.94;;;5.53;53.06
29359;BME280;16347;53.232;6.556;2022-11-20T06:11:22;101141.97;;;5.61;52.95
29359;BME280;16347;53.232;6.556;2022-11-20T06:13:50;101150.81;;;5.75;52.93
29359;BME280;16347;53.232;6.556;2022-11-20T06:16:19;101140.28;;;5.83;53.05
29359;BME280;16347;53.232;6.556;2022-11-20T06:18:48;101143.69;;;5.85;53.24
29359;BME280;16347;53.232;6.556;2022-11-20T06:21:20;101146.50;;;5.72;52.93
29359;BME280;16347;53.232;6.556;2022-11-20T06:23:49;101142.72;;;5.75;52.85
29359;BME280;16347;53.232;6.556;2022-11-20T06:26:19;101154.63;;;5.83;52.82
29359;BME280;16347;53.232;6.556;2022-11-20T06:28:49;101148.53;;;5.92;52.70
29359;BME280;16347;53.232;6.556;2022-11-20T06:31:20;101151.94;;;5.94;52.65
29359;BME280;16347;53.232;6.556;2022-11-20T06:33:48;101147.41;;;5.95;52.54
29359;BME280;16347;53.232;6.556;2022-11-20T06:36:20;101152.09;;;5.93;52.51
29359;BME280;16347;53.232;6.556;2022-11-20T06:38:49;101143.50;;;5.99;52.52
29359;BME280;16347;53.232;6.556;2022-11-20T06:41:19;101148.53;;;6.03;52.89
29359;BME280;16347;53.232;6.556;2022-11-20T06:43:47;101147.44;;;6.06;52.37
29359;BME280;16347;53.232;6.556;2022-11-20T06:46:17;101146.06;;;6.11;52.85
29359;BME280;16347;53.232;6.556;2022-11-20T06:48:46;101144.00;;;6.04;52.59
29359;BME280;16347;53.232;6.556;2022-11-20T06:51:15;101137.38;;;6.19;52.41
29359;BME280;16347;53.232;6.556;2022-11-20T06:53:44;101138.97;;;6.10;52.78
29359;BME280;16347;53.232;6.556;2022-11-20T06:56:13;101136.38;;;6.09;52.77
29359;BME280;16347;53.232;6.556;2022-11-20T06:58:41;101139.84;;;6.11;53.19
29359;BME280;16347;53.232;6.556;2022-11-20T07:01:11;101134.56;;;6.09;53.54
29359;BME280;16347;53.232;6.556;2022-11-20T07:03:41;101136.38;;;6.09;53.55
29359;BME280;16347;53.232;6.556;2022-11-20T07:06:09;101142.41;;;6.24;53.55
29359;BME280;16347;53.232;6.556;2022-11-20T07:08:38;101134.91;;;6.27;53.02
29359;BME280;16347;53.232;6.556;2022-11-20T07:11:07;101143.28;;;6.24;52.54
29359;BME280;16347;53.232;6.556;2022-11-20T07:13:35;101137.63;;;6.27;53.38
29359;BME280;16347;53.232;6.556;2022-11-20T07:16:06;101133.31;;;6.36;53.69
29359;BME280;16347;53.232;6.556;2022-11-20T07:18:35;101131.22;;;6.39;53.05
29359;BME280;16347;53.232;6.556;2022-11-20T07:21:05;101148.16;;;6.41;52.81
29359;BME280;16347;53.232;6.556;2022-11-20T07:23:34;101140.28;;;6.38;52.69
29359;BME280;16347;53.232;6.556;2022-11-20T07:26:03;101147.81;;;6.12;52.77
29359;BME280;16347;53.232;6.556;2022-11-20T07:28:33;101139.94;;;6.09;53.39
29359;BME280;16347;53.232;6.556;2022-11-20T07:31:02;101148.53;;;6.03;53.54
29359;BME280;16347;53.232;6.556;2022-11-20T07:33:31;101151.38;;;6.13;53.50
29359;BME280;16347;53.232;6.556;2022-11-20T07:36:00;101153.34;;;6.11;54.02
29359;BME280;16347;53.232;6.556;2022-11-20T07:38:28;101151.72;;;6.19;53.46
29359;BME280;16347;53.232;6.556;2022-11-20T07:40:57;101149.16;;;6.07;53.05
29359;BME280;16347;53.232;6.556;2022-11-20T07:43:28;101155.59;;;5.82;53.79
29359;BME280;16347;53.232;6.556;2022-11-20T07:45:59;101150.63;;;5.89;54.11
29359;BME280;16347;53.232;6.556;2022-11-20T07:48:27;101150.25;;;6.04;53.19
29359;BME280;16347;53.232;6.556;2022-11-20T07:50:56;101149.88;;;5.98;53.52
29359;BME280;16347;53.232;6.556;2022-11-20T07:53:24;101147.91;;;5.89;53.51
29359;BME280;16347;53.232;6.556;2022-11-20T07:55:52;101143.03;;;5.94;53.56
29359;BME280;16347;53.232;6.556;2022-11-20T07:58:21;101150.50;;;5.90;53.61
29359;BME280;16347;53.232;6.556;2022-11-20T08:00:49;101149.03;;;5.97;53.60
29359;BME280;16347;53.232;6.556;2022-11-20T08:03:19;101148.16;;;6.08;54.01
29359;BME280;16347;53.232;6.556;2022-11-20T08:05:51;101147.31;;;6.07;53.65
29359;BME280;16347;53.232;6.556;2022-11-20T08:08:19;101151.22;;;6.14;53.39
29359;BME280;16347;53.232;6.556;2022-11-20T08:10:47;101147.31;;;6.18;53.42
29359;BME280;16347;53.232;6.556;2022-11-20T08:13:15;101153.31;;;6.22;53.58
29359;BME280;16347;53.232;6.556;2022-11-20T08:16:01;101148.16;;;6.30;53.48
29359;BME280;16347;53.232;6.556;2022-11-20T08:18:30;101141.91;;;6.41;53.51
29359;BME280;16347;53.232;6.556;2022-11-20T08:21:02;101149.25;;;6.50;53.40
29359;BME280;16347;53.232;6.556;2022-11-20T08:23:31;101154.50;;;6.51;52.90
29359;BME280;16347;53.232;6.556;2022-11-20T08:25:59;101153.16;;;6.57;52.17
29359;BME280;16347;53.232;6.556;2022-11-20T08:28:27;101151.94;;;6.50;51.85
29359;BME280;16347;53.232;6.556;2022-11-20T08:30:58;101151.69;;;6.53;52.21
29359;BME280;16347;53.232;6.556;2022-11-20T08:33:26;101150.47;;;6.46;52.14
29359;BME280;16347;53.232;6.556;2022-11-20T08:35:59;101152.09;;;6.37;52.35
29359;BME280;16347;53.232;6.556;2022-11-20T08:38:28;101158.00;;;6.20;53.13
29359;BME280;16347;53.232;6.556;2022-11-20T08:40:57;101163.50;;;6.30;53.02
29359;BME280;16347;53.232;6.556;2022-11-20T08:43:43;101165.34;;;6.29;53.15
29359;BME280;16347;53.232;6.556;2022-11-20T08:46:11;101165.34;;;6.29;52.77
29359;BME280;16347;53.232;6.556;2022-11-20T08:48:39;101162.75;;;6.39;52.53
29359;BME280;16347;53.232;6.556;2022-11-20T08:51:09;101159.34;;;6.37;52.49
29359;BME280;16347;53.232;6.556;2022-11-20T08:53:37;101158.22;;;6.39;52.46
29359;BME280;16347;53.232;6.556;2022-11-20T08:56:06;101150.13;;;6.39;53.06
29359;BME280;16347;53.232;6.556;2022-11-20T08:58:34;101147.16;;;6.42;52.77
29359;BME280;16347;53.232;6.556;2022-11-20T09:01:23;101143.13;;;6.48;54.06
29359;BME280;16347;53.232;6.556;2022-11-20T09:03:51;101145.31;;;6.54;53.44
29359;BME280;16347;53.232;6.556;2022-11-20T09:06:21;101148.03;;;6.43;52.39
29359;BME280;16347;53.232;6.556;2022-11-20T09:08:51;101146.44;;;6.40;52.22
29359;BME280;16347;53.232;6.556;2022-11-20T09:11:20;101146.19;;;6.43;51.86
29359;BME280;16347;53.232;6.556;2022-11-20T09:13:49;101133.19;;;6.37;51.76
29359;BME280;16347;53.232;6.556;2022-11-20T09:16:17;101134.66;;;6.08;52.43
29359;BME280;16347;53.232;6.556;2022-11-20T09:18:45;101139.44;;;6.15;52.09
29359;BME280;16347;53.232;6.556;2022-11-20T09:21:29;101132.94;;;6.18;52.19
29359;BME280;16347;53.232;6.556;2022-11-20T09:23:57;101138.47;;;6.16;52.20
29359;BME280;16347;53.232;6.556;2022-11-20T09:26:25;101144.50;;;5.87;52.59
29359;BME280;16347;53.232;6.556;2022-11-20T09:28:53;101131.97;;;5.86;53.11
29359;BME280;16347;53.232;6.556;2022-11-20T09:31:25;101138.44;;;5.83;53.53
29359;BME280;16347;53.232;6.556;2022-11-20T09:33:53;101135.28;;;5.89;53.35
29359;BME280;16347;53.232;6.556;2022-11-20T09:36:21;101130.56;;;5.69;53.50
29359;BME280;16347;53.232;6.556;2022-11-20T09:38:50;101128.84;;;5.68;53.76
29359;BME280;16347;53.232;6.556;2022-11-20T09:41:32;101127.50;;;5.85;53.83
29359;BME280;16347;53.232;6.556;2022-11-20T09:44:13;101124.34;;;5.80;54.15
29359;BME280;16347;53.232;6.556;2022-11-20T09:46:53;101124.81;;;5.85;53.80
29359;BME280;16347;53.232;6.556;2022-11-20T09:49:43;101119.66;;;5.82;54.31
29359;BME280;16347;53.232;6.556;2022-11-20T09:52:32;101119.78;;;5.69;53.91
29359;BME280;16347;53.232;6.556;2022-11-20T09:55:11;101116.34;;;5.67;53.91
29359;BME280;16347;53.232;6.556;2022-11-20T09:57:51;101109.09;;;5.67;52.99
29359;BME280;16347;53.232;6.556;2022-11-20T10:00:42;101112.16;;;5.52;52.34
29359;BME280;16347;53.232;6.556;2022-11-20T10:03:21;101122.22;;;5.61;51.76
29359;BME280;16347;53.232;6.556;2022-11-20T10:06:12;101118.91;;;5.46;51.86
29359;BME280;16347;53.232;6.556;2022-11-20T10:08:50;101111.53;;;5.48;52.75
29359;BME280;16347;53.232;6.556;2022-11-20T10:11:36;101108.34;;;5.43;52.01
29359;BME280;16347;53.232;6.556;2022-11-20T10:14:21;101111.28;;;5.40;52.54
29359;BME280;16347;53.232;6.556;2022-11-20T10:17:02;101108.47;;;5.53;51.71
29359;BME280;16347;53.232;6.556;2022-11-20T10:20:00;101111.16;;;5.42;51.29
29359;BME280;16347;53.232;6.556;2022-11-20T10:22:49;101104.53;;;5.46;51.46
29359;BME280;16347;53.232;6.556;2022-11-20T10:25:20;101104.16;;;5.39;51.36
29359;BME280;16347;53.232;6.556;2022-11-20T10:28:10;101100.00;;;5.57;51.45
29359;BME280;16347;53.232;6.556;2022-11-20T10:30:45;101103.56;;;5.58;52.22
29359;BME280;16347;53.232;6.556;2022-11-20T10:33:17;101097.94;;;5.61;52.12
29359;BME280;16347;53.232;6.556;2022-11-20T10:35:51;101091.84;;;5.70;52.08
29359;BME280;16347;53.232;6.556;2022-11-20T10:38:37;101082.38;;;5.64;51.98
29359;BME280;16347;53.232;6.556;2022-11-20T10:41:21;101075.41;;;5.73;51.71
29359;BME280;16347;53.232;6.556;2022-11-20T10:44:15;101068.16;;;5.74;51.72
29359;BME280;16347;53.232;6.556;2022-11-20T10:47:18;101060.06;;;5.74;51.18
29359;BME280;16347;53.232;6.556;2022-11-20T10:50:05;101065.34;;;5.64;50.81
29359;BME280;16347;53.232;6.556;2022-11-20T10:53:08;101052.59;;;5.77;51.06
29359;BME280;16347;53.232;6.556;2022-11-20T10:56:17;101047.91;;;5.79;51.41
29359;BME280;16347;53.232;6.556;2022-11-20T11:01:51;101049.28;;;5.62;51.49
29359;BME280;16347;53.232;6.556;2022-11-20T11:04:42;101051.34;;;5.59;51.38
29359;BME280;16347;53.232;6.556;2022-11-20T11:07:35;101045.34;;;5.66;51.26
29359;BME280;16347;53.232;6.556;2022-11-20T11:10:17;101036.41;;;5.77;51.44
29359;BME280;16347;53.232;6.556;2022-11-20T11:12:51;101037.16;;;5.90;50.55
29359;BME280;16347;53.232;6.556;2022-11-20T11:15:28;101040.44;;;6.05;50.30
29359;BME280;16347;53.232;6.556;2022-11-20T11:17:58;101038.38;;;5.97;50.41
29359;BME280;16347;53.232;6.556;2022-11-20T11:20:26;101026.97;;;5.94;50.25
29359;BME280;16347;53.232;6.556;2022-11-20T11:22:56;101024.38;;;6.03;50.16
29359;BME280;16347;53.232;6.556;2022-11-20T11:25:27;101024.91;;;5.86;49.66
29359;BME280;16347;53.232;6.556;2022-11-20T11:28:03;101031.16;;;5.87;50.69
29359;BME280;16347;53.232;6.556;2022-11-20T11:30:46;101027.22;;;5.91;50.12
29359;BME280;16347;53.232;6.556;2022-11-20T11:33:26;101024.41;;;5.92;50.41
29359;BME280;16347;53.232;6.556;2022-11-20T11:36:22;101018.28;;;5.90;50.74
29359;BME280;16347;53.232;6.556;2022-11-20T11:39:13;101006.00;;;5.86;51.03
29359;BME280;16347;53.232;6.556;2022-11-20T11:42:12;100999.97;;;5.83;50.91
29359;BME280;16347;53.232;6.556;2022-11-20T11:45:11;101001.47;;;5.87;49.88
29359;BME280;16347;53.232;6.556;2022-11-20T11:47:55;100989.31;;;5.59;49.42
29359;BME280;16347;53.232;6.556;2022-11-20T11:50:50;100992.66;;;5.40;48.62
29359;BME280;16347;53.232;6.556;2022-11-20T11:53:27;100993.13;;;5.56;48.56
29359;BME280;16347;53.232;6.556;2022-11-20T11:56:10;100988.94;;;5.75;48.81
29359;BME280;16347;53.232;6.556;2022-11-20T11:58:47;100984.41;;;5.97;48.80
29359;BME280;16347;53.232;6.556;2022-11-20T12:01:26;100977.78;;;5.90;49.11
29359;BME280;16347;53.232;6.556;2022-11-20T12:04:04;100984.34;;;6.08;49.43
29359;BME280;16347;53.232;6.556;2022-11-20T12:06:36;100983.81;;;6.26;50.15
29359;BME280;16347;53.232;6.556;2022-11-20T12:09:10;100980.03;;;6.49;49.70
29359;BME280;16347;53.232;6.556;2022-11-20T12:11:43;100973.38;;;6.64;49.64
29359;BME280;16347;53.232;6.556;2022-11-20T12:14:18;100973.75;;;6.80;48.50
29359;BME280;16347;53.232;6.556;2022-11-20T12:16:51;100968.09;;;6.83;46.71
29359;BME280;16347;53.232;6.556;2022-11-20T12:19:44;100966.84;;;6.87;45.25
29359;BME280;16347;53.232;6.556;2022-11-20T12:22:44;100958.53;;;7.00;44.83
29359;BME280;16347;53.232;6.556;2022-11-20T12:25:44;100951.28;;;7.00;44.10
29359;BME280;16347;53.232;6.556;2022-11-20T12:28:44;100951.78;;;7.15;43.40
29359;BME280;16347;53.232;6.556;2022-11-20T12:35:17;100938.91;;;7.68;42.99
29359;BME280;16347;53.232;6.556;2022-11-20T12:38:26;100951.44;;;7.69;41.76
29359;BME280;16347;53.232;6.556;2022-11-20T12:41:05;100954.41;;;7.66;42.12
29359;BME280;16347;53.232;6.556;2022-11-20T12:43:45;100949.59;;;7.79;41.85
29359;BME280;16347;53.232;6.556;2022-11-20T12:46:37;100947.47;;;7.83;42.45
29359;BME280;16347;53.232;6.556;2022-11-20T12:49:27;100947.06;;;7.87;42.24
29359;BME280;16347;53.232;6.556;2022-11-20T12:52:16;100946.38;;;7.85;41.25
29359;BME280;16347;53.232;6.556;2022-11-20T12:55:07;100944.63;;;7.74;39.29
29359;BME280;16347;53.232;6.556;2022-11-20T12:57:44;100936.59;;;7.63;39.88
29359;BME280;16347;53.232;6.556;2022-11-20T13:00:18;100940.22;;;7.43;39.15
29359;BME280;16347;53.232;6.556;2022-11-20T13:03:08;100931.13;;;7.44;39.77
29359;BME280;16347;53.232;6.556;2022-11-20T13:05:50;100932.13;;;7.43;40.79
29359;BME280;16347;53.232;6.556;2022-11-20T13:08:30;100929.03;;;7.48;40.53
29359;BME280;16347;53.232;6.556;2022-11-20T13:11:18;100920.63;;;7.51;40.34
29359;BME280;16347;53.232;6.556;2022-11-20T13:14:20;100917.38;;;7.27;39.96
29359;BME280;16347;53.232;6.556;2022-11-20T13:17:14;100909.88;;;7.30;40.61
29359;BME280;16347;53.232;6.556;2022-11-20T13:20:26;100902.41;;;7.22;40.58
29359;BME280;16347;53.232;6.556;2022-11-20T13:23:33;100893.94;;;7.37;41.45
29359;BME280;16347;53.232;6.556;2022-11-20T13:26:24;100880.56;;;7.35;41.45
29359;BME280;16347;53.232;6.556;2022-11-20T13:29:09;100879.88;;;7.43;42.11
29359;BME280;16347;53.232;6.556;2022-11-20T13:32:02;100881.31;;;7.47;41.61
29359;BME280;16347;53.232;6.556;2022-11-20T13:34:38;100869.88;;;7.34;41.24
29359;BME280;16347;53.232;6.556;2022-11-20T13:37:25;100865.22;;;7.45;41.55
29359;BME280;16347;53.232;6.556;2022-11-20T13:40:22;100866.09;;;7.55;41.90
29359;BME280;16347;53.232;6.556;2022-11-20T13:43:15;100869.22;;;7.51;41.83
29359;BME280;16347;53.232;6.556;2022-11-20T13:45:55;100871.47;;;7.46;41.97